Terminal Aerodrome Forecast
Issued by NWS

Home | Current Version | Previous Version | Text Only | Print | Product List | Glossary On
Versions: 1 2 3 4 5 6 7 8 9 10 11 12
638
FTUS46 KSGX 222330
TAFSNA
TAF
KSNA 222330Z 2300/2324 22009KT P6SM SKC
     FM230300 VRB04KT P6SM FEW015
     FM230700 VRB04KT P6SM BKN012
     FM231600 VRB04KT P6SM FEW015
     FM232000 21009KT P6SM SCT150=

USA.gov is the U.S. government's official web portal to all federal, state and local government web resources and services.